Time;durP1;ratioP1;P1;durP2;ratioP2;P2;SDS_P1;SDS_P2;PMS_P1;PMS_P2;Temp;Humidity;BMP_temperature;BMP_pressure;BME280_temperature;BME280_humidity;BME280_pressure;Samples;Min_cycle;Max_cycle;Signal;HPM_P1;HPM_P2
2023/04/08 00:01:10;;;;;;;16.12;11.95;;;;;;;16.80;44.84;101526.50;143722;591;47007;-71
2023/04/08 00:03:36;;;;;;;12.23;10.63;;;;;;;16.79;44.95;101524.84;143724;567;47008;-71
2023/04/08 00:06:03;;;;;;;14.18;10.15;;;;;;;16.79;45.14;101516.72;143726;605;47004;-72
2023/04/08 00:08:30;;;;;;;11.85;10.10;;;;;;;16.78;44.72;101517.75;143726;598;47011;-72
2023/04/08 00:10:56;;;;;;;15.20;10.23;;;;;;;16.78;44.89;101517.75;143721;622;47006;-72
2023/04/08 00:13:22;;;;;;;13.23;9.73;;;;;;;16.78;45.03;101512.34;143724;574;47008;-71
2023/04/08 00:15:49;;;;;;;14.10;10.20;;;;;;;16.77;45.08;101518.00;143724;637;47004;-71
2023/04/08 00:18:16;;;;;;;14.15;10.95;;;;;;;16.78;45.02;101520.47;143717;646;47010;-72
2023/04/08 00:20:43;;;;;;;13.00;10.65;;;;;;;16.77;44.98;101515.28;143720;602;47004;-71
2023/04/08 00:23:09;;;;;;;12.82;10.98;;;;;;;16.74;45.35;101507.56;143722;587;47008;-72
2023/04/08 00:25:35;;;;;;;12.23;10.13;;;;;;;16.73;45.33;101503.19;143725;585;46009;-72
2023/04/08 00:28:02;;;;;;;13.32;10.10;;;;;;;16.72;45.34;101506.97;143721;656;47010;-72
2023/04/08 00:30:28;;;;;;;12.00;9.55;;;;;;;16.72;45.28;101507.81;143721;582;47006;-72
2023/04/08 00:32:55;;;;;;;15.82;11.30;;;;;;;16.71;45.50;101510.72;143719;575;47924;-71
2023/04/08 00:35:21;;;;;;;12.25;10.88;;;;;;;16.70;45.76;101512.63;143723;576;47004;-72
2023/04/08 00:37:48;;;;;;;12.30;9.55;;;;;;;16.67;45.60;101505.75;143723;608;47006;-71
2023/04/08 00:40:15;;;;;;;13.52;11.43;;;;;;;16.65;45.45;101509.72;143720;580;47006;-71
2023/04/08 00:42:41;;;;;;;14.40;11.07;;;;;;;16.65;45.69;101507.00;143720;613;47008;-72
2023/04/08 00:45:08;;;;;;;18.00;10.80;;;;;;;16.65;45.83;101507.00;143722;629;47006;-72
2023/04/08 00:47:36;;;;;;;13.05;10.85;;;;;;;16.63;45.89;101504.53;143722;631;47007;-72
2023/04/08 00:50:05;;;;;;;14.90;11.15;;;;;;;16.62;45.70;101508.31;143718;615;47006;-72
2023/04/08 00:52:33;;;;;;;14.52;10.65;;;;;;;16.61;45.96;101500.38;143721;576;47008;-71
2023/04/08 00:54:59;;;;;;;16.30;12.60;;;;;;;16.61;46.03;101509.34;143724;645;47007;-72
2023/04/08 00:57:25;;;;;;;15.73;12.50;;;;;;;16.62;46.13;101512.88;143721;573;47920;-72
2023/04/08 00:59:52;;;;;;;17.30;13.70;;;;;;;16.60;45.88;101523.09;143720;577;47006;-72
2023/04/08 01:02:42;;;;;;;21.67;14.75;;;;;;;16.59;45.98;101519.56;143721;599;47008;-72
2023/04/08 01:05:15;;;;;;;25.45;13.45;;;;;;;16.58;46.01;101520.63;143724;643;47004;-72
2023/04/08 01:07:46;;;;;;;17.05;14.18;;;;;;;16.57;46.27;101524.38;143713;566;48006;-72
2023/04/08 01:10:28;;;;;;;21.23;16.35;;;;;;;16.59;46.27;101525.00;143721;575;47006;-72
2023/04/08 01:13:00;;;;;;;22.85;17.00;;;;;;;16.57;46.46;101521.69;143721;588;47008;-71
2023/04/08 01:15:28;;;;;;;25.50;17.55;;;;;;;16.56;46.46;101530.03;143723;607;47006;-71
2023/04/08 01:17:56;;;;;;;22.90;16.65;;;;;;;16.55;46.39;101528.37;143720;596;47010;-71
2023/04/08 01:20:26;;;;;;;23.45;17.00;;;;;;;16.52;46.52;101538.63;143721;591;47006;-72
2023/04/08 01:23:31;;;;;;;18.50;12.43;;;;;;;16.52;46.66;101544.03;143723;583;47002;-71
2023/04/08 01:25:58;;;;;;;19.52;13.13;;;;;;;16.49;46.53;101536.34;143726;579;47002;-71
2023/04/08 01:28:28;;;;;;;16.08;12.13;;;;;;;16.48;46.43;101537.38;143721;580;47012;-71
2023/04/08 01:30:57;;;;;;;17.95;11.85;;;;;;;16.48;46.90;101531.13;143722;580;47006;-73
2023/04/08 01:33:24;;;;;;;16.87;11.57;;;;;;;16.50;46.62;101532.56;143722;602;47008;-71
2023/04/08 01:35:53;;;;;;;16.90;11.55;;;;;;;16.49;46.73;101530.09;143725;572;47004;-72
2023/04/08 01:38:21;;;;;;;14.77;12.00;;;;;;;16.47;46.73;101529.47;143721;575;47012;-72
2023/04/08 01:40:50;;;;;;;16.52;12.23;;;;;;;16.43;46.70;101529.06;143720;659;47010;-71
2023/04/08 01:43:18;;;;;;;15.65;12.35;;;;;;;16.44;46.95;101528.00;143722;618;47008;-71
2023/04/08 01:45:46;;;;;;;18.08;12.57;;;;;;;16.44;46.89;101524.47;143723;640;47006;-71
2023/04/08 01:48:15;;;;;;;20.62;13.60;;;;;;;16.43;46.82;101528.25;143722;644;47010;-71
2023/04/08 01:50:42;;;;;;;18.15;11.98;;;;;;;16.41;46.83;101531.19;143719;572;47006;-72
2023/04/08 01:53:10;;;;;;;14.63;11.38;;;;;;;16.41;47.09;101523.03;143722;574;47009;-72
2023/04/08 01:55:39;;;;;;;19.10;13.35;;;;;;;16.42;47.03;101521.16;143721;629;47004;-71
2023/04/08 01:58:08;;;;;;;18.42;12.68;;;;;;;16.40;46.92;101517.81;143720;606;47010;-71
2023/04/08 02:00:35;;;;;;;15.82;11.27;;;;;;;16.36;46.94;101514.72;143720;663;47004;-72
2023/04/08 02:03:04;;;;;;;13.62;10.18;;;;;;;16.34;46.64;101508.69;143721;577;47006;-71
2023/04/08 02:05:31;;;;;;;13.88;9.73;;;;;;;16.33;46.93;101507.03;143722;645;47004;-71
2023/04/08 02:07:57;;;;;;;14.35;10.38;;;;;;;16.31;46.87;101498.28;143720;661;47010;-73
2023/04/08 02:10:23;;;;;;;13.10;9.05;;;;;;;16.28;46.97;101491.41;143721;614;47008;-72
2023/04/08 02:12:49;;;;;;;18.05;10.05;;;;;;;16.26;47.13;101496.22;143721;638;47006;-72
2023/04/08 02:15:16;;;;;;;16.02;9.48;;;;;;;16.25;47.21;101497.28;143723;630;47004;-71
2023/04/08 02:17:51;;;;;;;13.50;9.80;;;;;;;16.24;47.19;101500.22;143721;588;47008;-71
2023/04/08 02:20:22;;;;;;;20.40;12.50;;;;;;;16.24;47.07;101498.31;143721;638;47004;-71
2023/04/08 02:22:59;;;;;;;20.85;12.60;;;;;;;16.25;46.96;101499.97;143722;647;47006;-71
2023/04/08 02:25:27;;;;;;;19.02;12.57;;;;;;;16.26;47.08;101498.94;143721;621;47004;-72
2023/04/08 02:27:55;;;;;;;17.55;14.32;;;;;;;16.25;47.09;101499.13;143720;617;47008;-71
2023/04/08 02:30:26;;;;;;;14.85;10.25;;;;;;;16.25;46.58;101497.28;143719;603;47004;-71
2023/04/08 02:32:55;;;;;;;11.88;9.57;;;;;;;16.26;46.44;101498.94;143725;567;47006;-71
2023/04/08 02:35:22;;;;;;;11.55;9.50;;;;;;;16.25;46.38;101499.13;143722;598;47004;-71
2023/04/08 02:37:49;;;;;;;14.13;8.50;;;;;;;16.25;46.20;101493.72;143723;567;47010;-72
2023/04/08 02:40:26;;;;;;;11.43;8.45;;;;;;;16.26;46.03;101500.78;143723;579;47008;-71
2023/04/08 02:42:53;;;;;;;11.40;7.70;;;;;;;16.24;45.85;101495.59;143720;578;47006;-72
2023/04/08 02:45:20;;;;;;;11.85;7.95;;;;;;;16.27;45.57;101491.63;143723;590;47002;-72
2023/04/08 02:47:46;;;;;;;9.65;6.85;;;;;;;16.27;45.05;101494.34;143716;603;47016;-71
2023/04/08 02:50:12;;;;;;;10.25;6.60;;;;;;;16.28;45.24;101487.87;143719;572;47004;-72
2023/04/08 02:52:39;;;;;;;9.00;6.75;;;;;;;16.28;45.02;101494.13;143720;655;47007;-71
2023/04/08 02:55:08;;;;;;;9.52;6.57;;;;;;;16.28;45.04;101482.44;143722;605;47002;-72
2023/04/08 02:57:39;;;;;;;9.95;6.60;;;;;;;16.27;45.18;101483.50;143721;614;47008;-72
2023/04/08 03:00:07;;;;;;;7.40;6.65;;;;;;;16.26;45.67;101487.25;143721;590;47005;-72
2023/04/08 03:02:33;;;;;;;8.57;6.55;;;;;;;16.27;45.36;101489.75;143721;583;47006;-72
2023/04/08 03:05:00;;;;;;;9.57;7.20;;;;;;;16.28;45.21;101498.69;143723;578;47002;-71
2023/04/08 03:07:26;;;;;;;11.57;6.90;;;;;;;16.25;44.95;101494.56;143720;574;47010;-71
2023/04/08 03:09:54;;;;;;;8.55;6.68;;;;;;;16.26;45.52;101501.66;143719;604;47004;-71
2023/04/08 03:12:21;;;;;;;8.30;7.47;;;;;;;16.27;45.63;101505.16;143723;666;47006;-72
2023/04/08 03:14:49;;;;;;;7.35;6.45;;;;;;;16.29;45.58;101500.38;143722;586;47004;-71
2023/04/08 03:17:16;;;;;;;8.93;7.18;;;;;;;16.29;45.83;101506.62;143719;646;48009;-71
2023/04/08 03:19:42;;;;;;;8.00;6.75;;;;;;;16.28;45.38;101499.56;143719;575;47004;-71
2023/04/08 03:22:09;;;;;;;9.40;6.93;;;;;;;16.28;45.86;101496.84;143723;567;47006;-72
2023/04/08 03:24:35;;;;;;;9.77;7.00;;;;;;;16.29;45.89;101503.06;143724;617;47004;-71
2023/04/08 03:27:02;;;;;;;9.60;7.25;;;;;;;16.29;45.96;101503.06;143720;604;47008;-71
2023/04/08 03:29:28;;;;;;;7.90;7.10;;;;;;;16.28;46.20;101509.53;143721;596;47004;-71
2023/04/08 03:31:55;;;;;;;12.45;8.20;;;;;;;16.28;45.98;101514.97;143722;568;47006;-71
2023/04/08 03:34:21;;;;;;;10.57;8.27;;;;;;;16.27;46.02;101513.31;143722;626;47006;-71
2023/04/08 03:36:47;;;;;;;11.60;8.25;;;;;;;16.26;46.20;101508.94;143723;575;47010;-71
2023/04/08 03:39:13;;;;;;;8.98;8.05;;;;;;;16.25;45.91;101518.94;143719;599;47004;-71
2023/04/08 03:41:40;;;;;;;11.57;8.23;;;;;;;16.24;46.20;101530.03;143724;584;47006;-73
2023/04/08 03:44:06;;;;;;;11.73;7.75;;;;;;;16.24;46.25;101528.13;143724;577;47002;-72
2023/04/08 03:46:32;;;;;;;11.20;8.10;;;;;;;16.25;46.43;101526.25;143722;622;47922;-71
2023/04/08 03:48:58;;;;;;;11.60;8.82;;;;;;;16.25;46.15;101526.25;143723;585;47004;-72
2023/04/08 03:51:25;;;;;;;16.27;8.80;;;;;;;16.25;46.12;101523.53;143719;584;47004;-72
2023/04/08 03:53:51;;;;;;;11.20;8.95;;;;;;;16.25;46.20;101539.78;143721;589;49000;-72
2023/04/08 03:56:17;;;;;;;9.90;8.88;;;;;;;16.24;46.08;101541.69;143720;579;47010;-72
2023/04/08 03:58:43;;;;;;;10.93;9.85;;;;;;;16.23;45.91;101542.72;143721;588;47008;-71
2023/04/08 04:01:10;;;;;;;14.00;9.65;;;;;;;16.26;45.94;101541.47;143722;619;47007;-71
2023/04/08 04:03:36;;;;;;;13.95;11.00;;;;;;;16.25;46.44;101540.62;143724;567;47002;-71
2023/04/08 04:06:02;;;;;;;13.30;10.10;;;;;;;16.24;46.50;101544.41;143720;576;47008;-72
2023/04/08 04:08:29;;;;;;;12.25;9.88;;;;;;;16.24;46.14;101544.41;143721;636;47009;-71
2023/04/08 04:10:55;;;;;;;11.32;9.77;;;;;;;16.25;46.14;101540.62;143722;579;47006;-72
2023/04/08 04:13:21;;;;;;;12.05;9.77;;;;;;;16.24;46.49;101547.09;143723;572;47002;-72
2023/04/08 04:15:48;;;;;;;11.63;9.70;;;;;;;16.25;46.42;101556.06;143722;590;47008;-73
2023/04/08 04:18:14;;;;;;;12.63;9.10;;;;;;;16.21;46.76;101553.81;143721;588;47004;-72
2023/04/08 04:20:43;;;;;;;16.90;10.27;;;;;;;16.23;46.76;101558.19;143721;567;47004;-71
2023/04/08 04:23:10;;;;;;;14.00;9.60;;;;;;;16.21;46.93;101556.50;143722;614;47002;-71
2023/04/08 04:25:39;;;;;;;16.95;11.00;;;;;;;16.18;46.85;101556.09;143723;580;47008;-72
2023/04/08 04:28:06;;;;;;;16.92;11.68;;;;;;;16.14;46.61;101561.12;143724;600;46016;-72
2023/04/08 04:30:35;;;;;;;18.98;11.10;;;;;;;16.12;46.62;101565.09;143721;595;47006;-72
2023/04/08 04:33:01;;;;;;;16.17;11.60;;;;;;;16.10;46.81;101570.72;143722;604;47004;-72
2023/04/08 04:35:27;;;;;;;15.60;11.77;;;;;;;16.12;46.94;101567.81;143721;572;47008;-71
2023/04/08 04:37:54;;;;;;;17.73;12.07;;;;;;;16.11;47.25;101572.37;143719;608;47004;-72
2023/04/08 04:40:20;;;;;;;21.05;12.30;;;;;;;16.10;47.07;101570.72;143720;591;47002;-72
2023/04/08 04:42:46;;;;;;;15.63;11.40;;;;;;;16.12;47.24;101575.94;143723;585;47004;-72
2023/04/08 04:45:13;;;;;;;18.77;13.13;;;;;;;16.12;47.52;101586.78;143720;575;47009;-71
2023/04/08 04:47:39;;;;;;;19.35;14.93;;;;;;;16.12;47.38;101584.88;143722;665;47004;-71
2023/04/08 04:50:06;;;;;;;18.50;14.18;;;;;;;16.11;47.35;101583.22;143722;645;47006;-72
2023/04/08 04:52:32;;;;;;;16.48;14.50;;;;;;;16.12;47.36;101586.78;143719;611;48000;-72
2023/04/08 04:54:59;;;;;;;18.42;14.43;;;;;;;16.13;47.11;101586.56;143719;637;47008;-72
2023/04/08 04:57:25;;;;;;;19.65;13.48;;;;;;;16.13;47.37;101591.97;143720;602;47004;-71
2023/04/08 04:59:51;;;;;;;18.42;13.62;;;;;;;16.13;47.16;101589.25;143722;590;47006;-72
2023/04/08 05:02:18;;;;;;;20.92;13.25;;;;;;;16.14;47.50;101593.63;143727;572;46008;-72
2023/04/08 05:04:44;;;;;;;18.67;13.35;;;;;;;16.17;47.25;101595.06;143722;655;47010;-71
2023/04/08 05:07:10;;;;;;;16.20;12.02;;;;;;;16.18;47.36;101603.00;143720;567;47004;-71
2023/04/08 05:09:37;;;;;;;17.45;12.95;;;;;;;16.20;47.41;101597.38;143722;595;47006;-72
2023/04/08 05:12:04;;;;;;;17.95;13.75;;;;;;;16.21;47.26;101607.16;143722;568;47004;-71
2023/04/08 05:14:30;;;;;;;20.23;13.82;;;;;;;16.26;46.98;101603.81;143721;572;47008;-71
2023/04/08 05:16:56;;;;;;;23.83;13.48;;;;;;;16.28;46.95;101602.56;143719;617;47004;-71
2023/04/08 05:19:23;;;;;;;21.42;14.87;;;;;;;16.32;47.09;101608.38;143722;568;47006;-71
2023/04/08 05:21:49;;;;;;;18.70;14.07;;;;;;;16.31;47.11;101607.56;143721;577;47002;-72
2023/04/08 05:24:15;;;;;;;20.08;13.60;;;;;;;16.35;47.47;101618.78;143721;579;47008;-73
2023/04/08 05:26:41;;;;;;;20.62;13.20;;;;;;;16.39;47.08;101617.31;143721;588;47004;-71
2023/04/08 05:29:08;;;;;;;14.25;12.00;;;;;;;16.42;47.03;101610.63;143721;581;47007;-72
2023/04/08 05:31:34;;;;;;;16.12;13.27;;;;;;;16.45;47.40;101607.50;143722;582;47002;-72
2023/04/08 05:34:00;;;;;;;13.73;11.60;;;;;;;16.48;47.57;101615.19;143720;584;47008;-71
2023/04/08 05:36:26;;;;;;;14.90;12.20;;;;;;;16.52;47.18;101611.81;143720;606;47004;-72
2023/04/08 05:38:53;;;;;;;16.02;11.45;;;;;;;16.59;47.23;101616.41;143721;576;47006;-72
2023/04/08 05:41:20;;;;;;;14.93;13.45;;;;;;;16.62;47.46;101610.50;143722;595;47004;-72
2023/04/08 05:43:46;;;;;;;13.32;11.75;;;;;;;16.64;46.92;101619.28;143720;580;47009;-73
2023/04/08 05:46:12;;;;;;;14.87;10.40;;;;;;;16.67;46.19;101608.84;143721;586;47004;-73
2023/04/08 05:48:39;;;;;;;13.98;11.38;;;;;;;16.70;45.95;101615.69;143724;588;47000;-72
2023/04/08 05:51:05;;;;;;;11.75;10.55;;;;;;;16.73;45.83;101615.25;143720;621;47003;-78
2023/04/08 05:53:31;;;;;;;12.43;11.12;;;;;;;16.77;46.10;101619.19;143722;604;47008;-77
2023/04/08 05:55:57;;;;;;;14.30;11.23;;;;;;;16.80;45.80;101620.66;143720;588;47012;-77
2023/04/08 05:58:24;;;;;;;13.23;10.85;;;;;;;16.83;45.37;101620.22;143722;615;47006;-78
2023/04/08 06:00:50;;;;;;;26.48;15.50;;;;;;;16.87;45.93;101616.00;143726;569;47004;-78
2023/04/08 06:03:16;;;;;;;17.52;12.65;;;;;;;16.91;45.79;101617.22;143722;607;47008;-78
2023/04/08 06:05:43;;;;;;;25.70;17.55;;;;;;;16.94;46.09;101616.78;143720;573;47004;-78
2023/04/08 06:08:09;;;;;;;19.77;14.20;;;;;;;16.97;46.00;101616.41;143722;577;47006;-78
2023/04/08 06:10:35;;;;;;;21.33;12.65;;;;;;;17.02;46.31;101623.87;143722;607;47002;-78
2023/04/08 06:13:02;;;;;;;14.30;11.65;;;;;;;17.05;46.01;101622.59;143721;567;47010;-74
2023/04/08 06:15:28;;;;;;;16.98;12.57;;;;;;;17.08;45.83;101616.72;143723;588;47002;-77
2023/04/08 06:17:54;;;;;;;16.73;11.65;;;;;;;17.12;45.92;101615.25;143723;567;47006;-72
2023/04/08 06:20:21;;;;;;;17.52;12.02;;;;;;;17.17;45.56;101623.56;143723;613;47002;-72
2023/04/08 06:22:47;;;;;;;16.70;12.75;;;;;;;17.21;45.53;101616.63;143722;573;47008;-72
2023/04/08 06:25:13;;;;;;;14.48;11.55;;;;;;;17.26;45.22;101621.41;143721;579;47924;-71
2023/04/08 06:27:40;;;;;;;19.77;13.68;;;;;;;17.31;45.85;101615.31;143721;569;47006;-73
2023/04/08 06:30:07;;;;;;;18.35;12.55;;;;;;;17.37;45.79;101617.16;143722;572;47004;-73
2023/04/08 06:32:34;;;;;;;17.37;12.30;;;;;;;17.40;45.55;101622.94;143722;575;47010;-75
2023/04/08 06:35:00;;;;;;;16.77;12.37;;;;;;;17.43;45.21;101625.22;143721;574;47004;-74
2023/04/08 06:37:27;;;;;;;19.05;13.15;;;;;;;17.47;45.52;101620.19;143717;587;49002;-74
2023/04/08 06:39:53;;;;;;;15.02;12.00;;;;;;;17.54;45.53;101633.69;143724;572;47002;-75
2023/04/08 06:42:19;;;;;;;20.30;12.90;;;;;;;17.56;45.46;101624.25;143722;572;47010;-74
2023/04/08 06:44:46;;;;;;;25.70;14.87;;;;;;;17.62;45.11;101628.00;143721;594;47004;-74
2023/04/08 06:47:12;;;;;;;51.85;15.30;;;;;;;17.66;45.63;101633.78;143720;652;47006;-74
2023/04/08 06:49:38;;;;;;;18.15;10.10;;;;;;;17.69;45.73;101633.34;143722;572;47004;-74
2023/04/08 06:52:05;;;;;;;16.42;10.35;;;;;;;17.74;45.59;101630.78;143726;568;47004;-74
2023/04/08 06:54:32;;;;;;;12.60;10.35;;;;;;;17.77;45.51;101627.63;143720;579;47004;-75
2023/04/08 06:56:58;;;;;;;17.15;11.00;;;;;;;17.82;45.16;101629.69;143723;597;47006;-74
2023/04/08 06:59:24;;;;;;;17.05;11.70;;;;;;;17.84;44.75;101622.97;143723;579;47004;-74
2023/04/08 07:01:52;;;;;;;15.30;12.10;;;;;;;17.88;44.61;101623.31;143720;573;47010;-74
2023/04/08 07:04:19;;;;;;;15.00;10.27;;;;;;;17.92;44.78;101627.25;143722;576;47004;-74
2023/04/08 07:06:47;;;;;;;14.80;11.02;;;;;;;18.00;45.08;101628.88;143723;597;48002;-70
2023/04/08 07:09:14;;;;;;;12.23;10.13;;;;;;;18.08;45.02;101627.75;143724;572;47000;-74
2023/04/08 07:11:40;;;;;;;13.40;11.40;;;;;;;18.10;44.61;101626.44;143725;603;47004;-74
2023/04/08 07:14:07;;;;;;;14.18;10.98;;;;;;;18.13;44.90;101634.16;143721;643;47002;-70
2023/04/08 07:16:33;;;;;;;12.68;11.32;;;;;;;18.17;45.12;101640.00;143722;582;47006;-69
2023/04/08 07:18:59;;;;;;;13.60;11.27;;;;;;;18.18;44.79;101641.62;143725;594;47004;-69
2023/04/08 07:21:25;;;;;;;14.95;12.37;;;;;;;18.19;44.95;101643.28;143722;575;47010;-69
2023/04/08 07:23:52;;;;;;;14.87;11.88;;;;;;;18.23;45.07;101646.41;143722;572;47008;-68
2023/04/08 07:26:18;;;;;;;15.32;11.27;;;;;;;18.27;45.22;101634.84;143721;597;47006;-69
2023/04/08 07:28:44;;;;;;;20.35;12.18;;;;;;;18.29;46.16;101638.16;143721;627;47002;-69
2023/04/08 07:31:15;;;;;;;18.45;12.13;;;;;;;18.37;45.64;101637.03;143721;591;47004;-69
2023/04/08 07:33:42;;;;;;;16.12;11.98;;;;;;;18.40;45.44;101631.13;143724;576;47004;-70
2023/04/08 07:36:10;;;;;;;13.43;11.35;;;;;;;18.43;45.50;101627.97;143723;624;47007;-69
2023/04/08 07:38:37;;;;;;;13.82;11.38;;;;;;;18.49;45.01;101634.38;143725;603;47006;-69
2023/04/08 07:41:04;;;;;;;16.35;12.50;;;;;;;18.52;45.12;101636.63;143720;622;47008;-70
2023/04/08 07:43:33;;;;;;;13.30;11.88;;;;;;;18.57;45.09;101631.31;143723;570;47004;-70
2023/04/08 07:46:03;;;;;;;18.65;11.57;;;;;;;18.62;45.08;101639.63;143723;578;47006;-69
2023/04/08 07:48:33;;;;;;;11.80;10.55;;;;;;;18.58;45.60;101635.69;143723;589;47002;-69
2023/04/08 07:51:04;;;;;;;10.52;8.63;;;;;;;18.56;46.50;101645.97;143725;579;46008;-69
2023/04/08 07:53:30;;;;;;;13.15;8.93;;;;;;;18.51;46.53;101647.72;143719;578;47004;-69
2023/04/08 07:55:56;;;;;;;10.43;8.57;;;;;;;18.58;46.66;101643.87;143720;584;47923;-71
2023/04/08 07:58:23;;;;;;;12.43;10.05;;;;;;;18.65;46.73;101641.03;143725;685;47006;-69
2023/04/08 08:00:50;;;;;;;11.55;9.63;;;;;;;18.73;46.99;101645.34;143723;592;47012;-69
2023/04/08 08:03:17;;;;;;;11.80;8.35;;;;;;;18.80;46.46;101648.81;143722;601;47006;-68
2023/04/08 08:05:43;;;;;;;11.32;8.88;;;;;;;18.80;46.28;101648.81;143721;613;47009;-69
2023/04/08 08:08:12;;;;;;;10.45;8.88;;;;;;;18.85;46.42;101653.56;143724;646;46008;-69
2023/04/08 08:10:39;;;;;;;10.80;8.80;;;;;;;18.82;46.51;101651.28;143725;572;47010;-69
2023/04/08 08:13:06;;;;;;;12.18;9.55;;;;;;;18.90;46.65;101656.41;143723;613;47010;-71
2023/04/08 08:15:34;;;;;;;11.43;9.25;;;;;;;18.90;46.99;101657.22;143723;581;47008;-69
2023/04/08 08:18:02;;;;;;;12.52;10.13;;;;;;;18.83;47.29;101664.69;143726;567;47004;-71
2023/04/08 08:20:29;;;;;;;12.60;9.20;;;;;;;18.90;47.12;101653.69;143720;568;47011;-69
2023/04/08 08:22:55;;;;;;;11.25;9.80;;;;;;;18.93;47.11;101654.06;143724;600;47010;-68
2023/04/08 08:25:21;;;;;;;11.12;9.40;;;;;;;19.05;46.98;101659.56;143724;568;47008;-68
2023/04/08 08:27:47;;;;;;;10.25;8.82;;;;;;;19.04;46.96;101663.34;143725;642;47008;-69
2023/04/08 08:30:15;;;;;;;13.55;9.23;;;;;;;18.94;47.11;101663.06;143720;601;47010;-70
2023/04/08 08:32:41;;;;;;;9.15;8.25;;;;;;;19.01;47.25;101658.38;143721;599;47006;-70
2023/04/08 08:35:08;;;;;;;9.43;7.75;;;;;;;18.93;47.82;101651.34;143723;626;47008;-69
2023/04/08 08:37:34;;;;;;;9.07;7.62;;;;;;;18.86;47.84;101641.59;143725;623;47007;-69
2023/04/08 08:40:00;;;;;;;9.15;7.95;;;;;;;18.71;47.98;101651.03;143723;579;47010;-69
2023/04/08 08:42:27;;;;;;;8.90;8.00;;;;;;;18.66;48.42;101644.63;143719;583;48006;-69
2023/04/08 08:44:54;;;;;;;10.15;9.15;;;;;;;18.74;48.61;101645.12;143724;567;47008;-70
2023/04/08 08:47:20;;;;;;;13.00;10.00;;;;;;;18.87;48.10;101638.66;143727;576;46008;-70
2023/04/08 08:49:47;;;;;;;10.07;7.95;;;;;;;19.02;47.83;101653.78;143723;621;47012;-72
2023/04/08 08:52:17;;;;;;;9.15;8.25;;;;;;;19.05;47.68;101639.69;143722;573;47006;-71
2023/04/08 08:54:46;;;;;;;8.80;7.90;;;;;;;19.07;47.71;101634.81;143726;616;47008;-71
2023/04/08 08:57:19;;;;;;;9.65;8.45;;;;;;;19.19;47.65;101645.75;143728;595;47002;-70
2023/04/08 08:59:47;;;;;;;9.25;8.20;;;;;;;19.34;47.62;101632.50;143722;574;47013;-71
2023/04/08 09:02:27;;;;;;;8.38;7.50;;;;;;;19.47;47.01;101638.81;143724;588;47006;-73
2023/04/08 09:05:01;;;;;;;11.75;9.20;;;;;;;19.37;46.83;101629.31;143724;594;47008;-70
2023/04/08 09:07:29;;;;;;;9.93;7.62;;;;;;;19.48;47.20;101635.03;143725;580;47006;-70
2023/04/08 09:09:57;;;;;;;7.95;7.18;;;;;;;19.51;46.31;101637.25;143723;598;47012;-74
2023/04/08 09:12:26;;;;;;;8.02;7.22;;;;;;;19.47;46.44;101634.19;143723;590;47007;-70
2023/04/08 09:15:08;;;;;;;8.52;7.62;;;;;;;19.51;46.98;101627.19;143724;584;47008;-70
2023/04/08 09:17:37;;;;;;;9.18;7.87;;;;;;;19.68;46.57;101629.22;143725;572;47004;-70
2023/04/08 09:20:11;;;;;;;8.90;8.00;;;;;;;19.64;46.59;101628.03;143721;579;47011;-69
2023/04/08 09:23:00;;;;;;;8.32;7.35;;;;;;;19.69;46.53;101628.97;143723;895;47006;-70
2023/04/08 09:25:28;;;;;;;8.93;8.02;;;;;;;19.69;46.34;101634.41;143722;644;47008;-69
2023/04/08 09:27:55;;;;;;;8.98;7.85;;;;;;;19.68;46.23;101630.03;143725;590;47006;-68
2023/04/08 09:30:23;;;;;;;8.98;8.02;;;;;;;19.70;46.09;101636.06;143726;567;47010;-67
2023/04/08 09:32:58;;;;;;;8.43;7.62;;;;;;;19.54;45.98;101624.00;143723;591;47927;-68
2023/04/08 09:35:24;;;;;;;7.82;7.03;;;;;;;19.69;45.39;101619.97;143723;583;47009;-68
2023/04/08 09:37:51;;;;;;;8.05;7.25;;;;;;;19.83;45.72;101620.56;143723;592;47004;-68
2023/04/08 09:40:18;;;;;;;8.57;7.15;;;;;;;19.88;44.54;101612.50;143722;665;47008;-70
2023/04/08 09:42:51;;;;;;;8.30;7.47;;;;;;;19.74;44.45;101624.69;143723;579;47004;-80
2023/04/08 09:45:18;;;;;;;7.85;6.28;;;;;;;19.61;44.59;101615.72;143726;573;47006;-65
2023/04/08 09:48:00;;;;;;;7.12;6.45;;;;;;;19.48;44.55;101616.75;143724;576;49007;-66
2023/04/08 09:50:31;;;;;;;7.43;6.55;;;;;;;19.60;44.86;101613.19;143722;612;47004;-66
2023/04/08 09:53:07;;;;;;;7.87;6.57;;;;;;;19.64;44.72;101617.97;143721;593;47004;-66
2023/04/08 09:55:36;;;;;;;12.77;8.18;;;;;;;19.68;44.57;101619.13;143724;687;47006;-69
2023/04/08 09:58:22;;;;;;;8.82;7.35;;;;;;;19.88;43.63;101619.87;143727;579;47010;-65
2023/04/08 10:00:51;;;;;;;9.00;8.10;;;;;;;20.01;44.45;101616.06;143723;592;47008;-65
2023/04/08 10:03:39;;;;;;;8.00;7.20;;;;;;;20.17;45.32;101611.72;143723;617;47004;-64
2023/04/08 10:06:07;;;;;;;8.40;7.35;;;;;;;20.24;45.25;101620.63;143725;600;47007;-65
2023/04/08 10:08:34;;;;;;;8.15;7.35;;;;;;;20.27;44.94;101620.16;143726;606;47006;-65
2023/04/08 10:11:01;;;;;;;8.65;7.75;;;;;;;20.23;45.86;101613.50;143724;566;47008;-66
2023/04/08 10:13:27;;;;;;;8.00;6.97;;;;;;;20.37;46.38;101609.44;143723;739;47008;-64
2023/04/08 10:16:23;;;;;;;11.80;7.53;;;;;;;20.52;45.61;101611.62;143722;576;47006;-64
2023/04/08 10:18:54;;;;;;;8.73;7.32;;;;;;;20.39;46.00;101614.62;143725;573;47004;-63
2023/04/08 10:21:46;;;;;;;8.57;7.45;;;;;;;20.49;45.80;101612.13;143722;589;47921;-63
2023/04/08 10:24:13;;;;;;;10.40;7.95;;;;;;;20.56;46.29;101604.59;143722;694;47004;-63
2023/04/08 10:26:42;;;;;;;8.52;7.72;;;;;;;20.59;45.72;101606.84;143723;569;47006;-63
2023/04/08 10:29:36;;;;;;;9.75;6.97;;;;;;;20.54;45.23;101606.75;143724;985;47002;-63
2023/04/08 10:32:03;;;;;;;7.43;6.72;;;;;;;20.56;45.49;101598.31;143723;566;47010;-62
2023/04/08 10:34:29;;;;;;;7.53;6.43;;;;;;;20.69;45.44;101608.12;143721;569;47004;-62
2023/04/08 10:36:58;;;;;;;7.47;6.45;;;;;;;20.68;44.54;101598.25;143725;579;47006;-64
2023/04/08 10:39:26;;;;;;;7.60;6.70;;;;;;;20.39;43.79;101606.44;143724;947;47002;-64
2023/04/08 10:41:52;;;;;;;7.07;6.35;;;;;;;20.27;44.44;101607.31;143724;583;47010;-64
2023/04/08 10:44:20;;;;;;;7.97;7.18;;;;;;;20.19;43.89;101594.09;143722;979;47004;-64
2023/04/08 10:46:48;;;;;;;7.72;6.93;;;;;;;20.27;43.97;101587.41;143723;826;47006;-63
2023/04/08 10:49:15;;;;;;;9.70;8.70;;;;;;;20.29;45.40;101588.81;143723;589;47002;-64
2023/04/08 10:51:43;;;;;;;10.73;8.43;;;;;;;20.30;45.62;101584.16;143723;587;47019;-64
2023/04/08 10:54:14;;;;;;;7.03;6.35;;;;;;;19.91;44.60;101592.13;143722;980;47004;-64
2023/04/08 10:56:48;;;;;;;8.98;8.15;;;;;;;19.73;45.84;101576.72;143726;569;47006;-64
2023/04/08 10:59:16;;;;;;;7.60;6.57;;;;;;;19.72;44.38;101581.34;143724;972;47002;-62
2023/04/08 11:01:45;;;;;;;7.78;6.37;;;;;;;20.07;44.35;101575.00;143723;642;47010;-61
2023/04/08 11:04:12;;;;;;;6.60;5.87;;;;;;;20.21;43.05;101567.38;143723;800;47004;-59
2023/04/08 11:06:38;;;;;;;8.32;6.15;;;;;;;20.18;42.05;101559.69;143725;573;47006;-59
2023/04/08 11:09:05;;;;;;;8.45;5.75;;;;;;;20.33;42.19;101567.31;143724;570;47002;-65
2023/04/08 11:11:31;;;;;;;7.65;5.93;;;;;;;20.45;41.83;101559.09;143723;657;47008;-67
2023/04/08 11:13:58;;;;;;;9.95;5.35;;;;;;;20.40;42.07;101559.84;143722;784;47004;-65
2023/04/08 11:16:26;;;;;;;6.43;5.82;;;;;;;20.37;43.04;101556.78;143725;606;47006;-65
2023/04/08 11:18:54;;;;;;;9.85;6.20;;;;;;;20.23;42.48;101551.59;143726;581;47004;-59